Observation data for Morton on 05/24/2020      Previous  Date  Next       Current Mesonet Observations  Soil Data  Daily Summary Page  Observations in Plain Language
KMNS 240500Z 17013G18KT 19/11 A2985 RMK A01 T01940106  RH  058%=      5-min Rain = 0
KMNS 240505Z 17013KT 19/11 A2985 RMK A01 T01930105  RH  059%=      5-min Rain = 0
KMNS 240510Z 17014KT 19/11 A2985 RMK A01 T01920105  RH  059%=      5-min Rain = 0
KMNS 240515Z 17013KT 19/11 A2985 RMK A01 T01920105  RH  059%=      5-min Rain = 0
KMNS 240520Z 17013G18KT 19/11 A2985 RMK A01 T01910105  RH  059%=      5-min Rain = 0
KMNS 240525Z 16014G19KT 19/11 A2985 RMK A01 T01910105  RH  059%=      5-min Rain = 0
KMNS 240530Z 16012G17KT 19/10 A2985 RMK A01 T01900104  RH  059%=      5-min Rain = 0
KMNS 240535Z 16013KT 19/10 A2986 RMK A01 T01890104  RH  059%=      5-min Rain = 0
KMNS 240540Z 16013G20KT 19/10 A2986 RMK A01 T01890104  RH  060%=      5-min Rain = 0
KMNS 240545Z 16013G18KT 19/10 A2986 RMK A01 T01880104  RH  060%=      5-min Rain = 0
KMNS 240550Z 16013G18KT 19/10 A2986 RMK A01 T01880104  RH  060%=      5-min Rain = 0
KMNS 240555Z 16012G17KT 19/10 A2986 RMK A01 T01870104  RH  061%=      5-min Rain = 0
KMNS 240600Z 16012G18KT 19/10 A2986 RMK A01 T01870104  RH  061%=      5-min Rain = 0
KMNS 240605Z 17013KT 19/10 A2985 RMK A01 T01880104  RH  060%=      5-min Rain = 0
KMNS 240610Z 17013KT 19/10 A2985 RMK A01 T01880104  RH  060%=      5-min Rain = 0
KMNS 240615Z 17014KT 19/10 A2985 RMK A01 T01880104  RH  060%=      5-min Rain = 0
KMNS 240620Z 17013KT 19/10 A2985 RMK A01 T01880103  RH  060%=      5-min Rain = 0
KMNS 240625Z 17014KT 19/10 A2985 RMK A01 T01890103  RH  059%=      5-min Rain = 0
KMNS 240630Z 17013G19KT 19/10 A2985 RMK A01 T01890103  RH  059%=      5-min Rain = 0
KMNS 240635Z 17014G20KT 19/10 A2985 RMK A01 T01890103  RH  059%=      5-min Rain = 0
KMNS 240640Z 17013KT 19/10 A2985 RMK A01 T01890103  RH  059%=      5-min Rain = 0
KMNS 240645Z 17013G18KT 19/10 A2985 RMK A01 T01890103  RH  059%=      5-min Rain = 0
KMNS 240650Z 17014KT 19/10 A2986 RMK A01 T01890101  RH  059%=      5-min Rain = 0
KMNS 240655Z 17015G21KT 19/10 A2985 RMK A01 T01910101  RH  058%=      5-min Rain = 0
KMNS 240700Z 17014G19KT 19/10 A2985 RMK A01 T01910101  RH  058%=      5-min Rain = 0
KMNS 240705Z 16013G18KT 19/10 A2985 RMK A01 T01900102  RH  058%=      5-min Rain = 0
KMNS 240710Z 16010G15KT 19/10 A2986 RMK A01 T01890101  RH  059%=      5-min Rain = 0
KMNS 240715Z 16011KT 19/10 A2986 RMK A01 T01880101  RH  059%=      5-min Rain = 0
KMNS 240720Z 17011KT 19/10 A2986 RMK A01 T01870100  RH  059%=      5-min Rain = 0
KMNS 240725Z 16012KT 19/10 A2986 RMK A01 T01870100  RH  059%=      5-min Rain = 0
KMNS 240730Z 16012KT 19/10 A2986 RMK A01 T01870100  RH  059%=      5-min Rain = 0
KMNS 240735Z 16012KT 19/10 A2986 RMK A01 T01860100  RH  059%=      5-min Rain = 0
KMNS 240740Z 15012KT 18/10 A2986 RMK A01 T01840100  RH  060%=      5-min Rain = 0
KMNS 240745Z 16011G17KT 18/10 A2986 RMK A01 T01810102  RH  062%=      5-min Rain = 0
KMNS 240750Z 16012G19KT 18/11 A2986 RMK A01 T01800106  RH  064%=      5-min Rain = 0
KMNS 240755Z 16011G16KT 18/11 A2986 RMK A01 T01790107  RH  065%=      5-min Rain = 0
KMNS 240800Z 16011KT 18/11 A2986 RMK A01 T01780109  RH  066%=      5-min Rain = 0
KMNS 240805Z 16012KT 18/11 A2986 RMK A01 T01780110  RH  067%=      5-min Rain = 0
KMNS 240810Z 16011G16KT 18/11 A2986 RMK A01 T01770110  RH  067%=      5-min Rain = 0
KMNS 240815Z 16011KT 18/11 A2986 RMK A01 T01760110  RH  067%=      5-min Rain = 0
KMNS 240820Z 16011KT 18/11 A2986 RMK A01 T01750110  RH  068%=      5-min Rain = 0
KMNS 240825Z 16010KT 18/11 A2986 RMK A01 T01750110  RH  068%=      5-min Rain = 0
KMNS 240830Z 16011G17KT 17/11 A2986 RMK A01 T01740109  RH  068%=      5-min Rain = 0
KMNS 240835Z 16011G16KT 17/11 A2986 RMK A01 T01730109  RH  068%=      5-min Rain = 0
KMNS 240840Z 16012KT 17/11 A2986 RMK A01 T01720109  RH  069%=      5-min Rain = 0
KMNS 240845Z 15011G16KT 17/11 A2986 RMK A01 T01710109  RH  069%=      5-min Rain = 0
KMNS 240850Z 15011KT 17/11 A2986 RMK A01 T01690109  RH  070%=      5-min Rain = 0
KMNS 240855Z 16011KT 17/11 A2986 RMK A01 T01690108  RH  070%=      5-min Rain = 0
KMNS 240900Z 16010KT 17/11 A2986 RMK A01 T01690107  RH  070%=      5-min Rain = 0
KMNS 240905Z 16010KT 17/11 A2986 RMK A01 T01680107  RH  069%=      5-min Rain = 0
KMNS 240910Z 16012KT 17/11 A2986 RMK A01 T01680106  RH  069%=      5-min Rain = 0
KMNS 240915Z 16011KT 17/11 A2986 RMK A01 T01670105  RH  069%=      5-min Rain = 0
KMNS 240920Z 17010KT 17/11 A2986 RMK A01 T01660105  RH  069%=      5-min Rain = 0
KMNS 240925Z 17010KT 17/11 A2986 RMK A01 T01650105  RH  070%=      5-min Rain = 0
KMNS 240930Z 17011KT 17/11 A2986 RMK A01 T01650105  RH  070%=      5-min Rain = 0
KMNS 240935Z 17010KT 16/10 A2986 RMK A01 T01640104  RH  070%=      5-min Rain = 0
KMNS 240940Z 17010KT 16/10 A2986 RMK A01 T01620104  RH  070%=      5-min Rain = 0
KMNS 240945Z 18011KT 16/10 A2986 RMK A01 T01620103  RH  070%=      5-min Rain = 0
KMNS 240950Z 18011KT 16/10 A2986 RMK A01 T01620103  RH  070%=      5-min Rain = 0
KMNS 240955Z 18011KT 16/10 A2986 RMK A01 T01610102  RH  070%=      5-min Rain = 0
KMNS 241000Z 18011KT 16/10 A2985 RMK A01 T01610103  RH  071%=      5-min Rain = 0
KMNS 241005Z 18011KT 16/10 A2985 RMK A01 T01610102  RH  071%=      5-min Rain = 0
KMNS 241010Z 18011KT 16/10 A2985 RMK A01 T01600102  RH  071%=      5-min Rain = 0
KMNS 241015Z 18010G15KT 16/10 A2986 RMK A01 T01590103  RH  071%=      5-min Rain = 0
KMNS 241020Z 18010KT 16/10 A2986 RMK A01 T01590103  RH  072%=      5-min Rain = 0
KMNS 241025Z 18010KT 16/10 A2986 RMK A01 T01580103  RH  072%=      5-min Rain = 0
KMNS 241030Z 17009KT 16/10 A2986 RMK A01 T01570103  RH  073%=      5-min Rain = 0
KMNS 241035Z 17008KT 16/10 A2986 RMK A01 T01550103  RH  073%=      5-min Rain = 0
KMNS 241040Z 17008KT 15/10 A2986 RMK A01 T01540103  RH  074%=      5-min Rain = 0
KMNS 241045Z 17008KT 15/10 A2986 RMK A01 T01530103  RH  075%=      5-min Rain = 0
KMNS 241050Z 17009KT 15/10 A2986 RMK A01 T01520104  RH  075%=      5-min Rain = 0
KMNS 241055Z 16008KT 15/10 A2986 RMK A01 T01520104  RH  076%=      5-min Rain = 0
KMNS 241100Z 16008KT 15/10 A2986 RMK A01 T01510104  RH  076%=      5-min Rain = 0
KMNS 241105Z 16008KT 15/10 A2986 RMK A01 T01510104  RH  076%=      5-min Rain = 0
KMNS 241110Z 16009KT 15/10 A2986 RMK A01 T01500104  RH  077%=      5-min Rain = 0
KMNS 241115Z 16008KT 15/10 A2986 RMK A01 T01490104  RH  077%=      5-min Rain = 0
KMNS 241120Z 16008KT 15/10 A2986 RMK A01 T01480104  RH  077%=      5-min Rain = 0
KMNS 241125Z 17009KT 15/10 A2986 RMK A01 T01480104  RH  077%=      5-min Rain = 0
KMNS 241130Z 17009KT 15/10 A2986 RMK A01 T01470104  RH  078%=      5-min Rain = 0
KMNS 241135Z 16008KT 15/10 A2986 RMK A01 T01460104  RH  078%=      5-min Rain = 0
KMNS 241140Z 17007KT 15/10 A2986 RMK A01 T01450103  RH  079%=      5-min Rain = 0
KMNS 241145Z 17007KT 14/10 A2986 RMK A01 T01440103  RH  079%=      5-min Rain = 0
KMNS 241150Z 17006KT 14/10 A2987 RMK A01 T01430103  RH  079%=      5-min Rain = 0
KMNS 241155Z 18005KT 14/10 A2987 RMK A01 T01430103  RH  080%=      5-min Rain = 0
KMNS 241200Z 19003KT 14/10 A2987 RMK A01 T01420103  RH  080%=      5-min Rain = 0
KMNS 241205Z 21002KT 14/10 A2988 RMK A01 T01440103  RH  079%=      5-min Rain = 0
KMNS 241210Z 29001KT 14/10 A2988 RMK A01 T01440102  RH  079%=      5-min Rain = 0
KMNS 241215Z 25001KT 14/10 A2988 RMK A01 T01430102  RH  079%=      5-min Rain = 0
KMNS 241220Z 22003KT 15/11 A2989 RMK A01 T01480105  RH  078%=      5-min Rain = 0
KMNS 241225Z 21006KT 15/11 A2989 RMK A01 T01500106  RH  077%=      5-min Rain = 0
KMNS 241230Z 20007KT 15/11 A2989 RMK A01 T01540107  RH  076%=      5-min Rain = 0
KMNS 241235Z 20005KT 16/11 A2989 RMK A01 T01550107  RH  075%=      5-min Rain = 0
KMNS 241240Z 21006KT 16/11 A2989 RMK A01 T01560107  RH  075%=      5-min Rain = 0
KMNS 241245Z 20005KT 16/11 A2989 RMK A01 T01580107  RH  074%=      5-min Rain = 0
KMNS 241250Z 20006KT 16/11 A2989 RMK A01 T01590107  RH  074%=      5-min Rain = 0
KMNS 241255Z 21007KT 16/11 A2989 RMK A01 T01600108  RH  073%=      5-min Rain = 0
KMNS 241300Z 20006KT 16/11 A2989 RMK A01 T01630108  RH  072%=      5-min Rain = 0
KMNS 241305Z 19007KT 17/11 A2988 RMK A01 T01670109  RH  071%=      5-min Rain = 0
KMNS 241310Z 19007KT 17/11 A2989 RMK A01 T01700109  RH  070%=      5-min Rain = 0
KMNS 241315Z 19008KT 17/11 A2988 RMK A01 T01720109  RH  069%=      5-min Rain = 0
KMNS 241320Z 19009KT 17/11 A2988 RMK A01 T01730110  RH  069%=      5-min Rain = 0
KMNS 241325Z 18009KT 17/11 A2988 RMK A01 T01740110  RH  069%=      5-min Rain = 0
KMNS 241330Z 18009KT 18/11 A2988 RMK A01 T01750112  RH  069%=      5-min Rain = 0
KMNS 241335Z 18009KT 18/11 A2988 RMK A01 T01810113  RH  067%=      5-min Rain = 0
KMNS 241340Z 19011KT 19/11 A2988 RMK A01 T01860114  RH  065%=      5-min Rain = 0
KMNS 241345Z 19012KT 19/12 A2987 RMK A01 T01890115  RH  064%=      5-min Rain = 0
KMNS 241350Z 19011KT 19/12 A2987 RMK A01 T01920115  RH  063%=      5-min Rain = 0
KMNS 241355Z 19011KT 20/12 A2987 RMK A01 T01980118  RH  062%=      5-min Rain = 0
KMNS 241400Z 19013G19KT 21/12 A2987 RMK A01 T02060119  RH  060%=      5-min Rain = 0
KMNS 241405Z 20015KT 20/12 A2987 RMK A01 T02030119  RH  060%=      5-min Rain = 0
KMNS 241410Z 20014KT 21/12 A2987 RMK A01 T02070120  RH  060%=      5-min Rain = 0
KMNS 241415Z 20016KT 21/12 A2987 RMK A01 T02080120  RH  059%=      5-min Rain = 0
KMNS 241420Z 20016KT 21/12 A2987 RMK A01 T02090120  RH  059%=      5-min Rain = 0
KMNS 241425Z 20015KT 21/12 A2987 RMK A01 T02120120  RH  058%=      5-min Rain = 0
KMNS 241430Z 20014KT 21/12 A2987 RMK A01 T02140120  RH  057%=      5-min Rain = 0
KMNS 241435Z 20013KT 22/12 A2987 RMK A01 T02160120  RH  056%=      5-min Rain = 0
KMNS 241440Z 21012KT 22/12 A2987 RMK A01 T02220121  RH  055%=      5-min Rain = 0
KMNS 241445Z 21012KT 22/12 A2987 RMK A01 T02220120  RH  055%=      5-min Rain = 0
KMNS 241450Z 21011G17KT 23/12 A2987 RMK A01 T02300122  RH  053%=      5-min Rain = 0
KMNS 241455Z 22014G19KT 23/12 A2987 RMK A01 T02310119  RH  051%=      5-min Rain = 0
KMNS 241500Z 22014KT 23/12 A2987 RMK A01 T02300118  RH  051%=      5-min Rain = 0
KMNS 241505Z 22013KT 23/12 A2987 RMK A01 T02300119  RH  051%=      5-min Rain = 0
KMNS 241510Z 23011KT 24/12 A2986 RMK A01 T02350119  RH  050%=      5-min Rain = 0
KMNS 241515Z 22012KT 24/12 A2986 RMK A01 T02400117  RH  048%=      5-min Rain = 0
KMNS 241520Z 22010G15KT 24/12 A2986 RMK A01 T02410117  RH  047%=      5-min Rain = 0
KMNS 241525Z 22010KT 25/11 A2986 RMK A01 T02450114  RH  045%=      5-min Rain = 0
KMNS 241530Z 22010KT 25/11 A2986 RMK A01 T02480114  RH  045%=      5-min Rain = 0
KMNS 241535Z 22009KT 25/11 A2986 RMK A01 T02460112  RH  045%=      5-min Rain = 0
KMNS 241540Z 21009KT 25/11 A2986 RMK A01 T02480110  RH  043%=      5-min Rain = 0
KMNS 241545Z 22008KT 25/11 A2986 RMK A01 T02540109  RH  042%=      5-min Rain = 0
KMNS 241550Z 22009KT 26/11 A2986 RMK A01 T02570106  RH  040%=      5-min Rain = 0
KMNS 241555Z 22008KT 26/10 A2986 RMK A01 T02590103  RH  039%=      5-min Rain = 0
KMNS 241600Z 23007KT 26/10 A2986 RMK A01 T02590102  RH  038%=      5-min Rain = 0
KMNS 241605Z 21006KT 26/10 A2986 RMK A01 T02570095  RH  037%=      5-min Rain = 0
KMNS 241610Z 21006G11KT 26/10 A2986 RMK A01 T02630096  RH  036%=      5-min Rain = 0
KMNS 241615Z 22006G11KT 26/09 A2986 RMK A01 T02630090  RH  035%=      5-min Rain = 0
KMNS 241620Z 22007KT 27/09 A2986 RMK A01 T02690093  RH  034%=      5-min Rain = 0
KMNS 241625Z 22006G11KT 27/09 A2985 RMK A01 T02670092  RH  034%=      5-min Rain = 0
KMNS 241630Z 23007KT 27/09 A2985 RMK A01 T02710090  RH  033%=      5-min Rain = 0
KMNS 241635Z 22009KT 27/09 A2985 RMK A01 T02730088  RH  032%=      5-min Rain = 0
KMNS 241640Z 23005G10KT 27/09 A2985 RMK A01 T02730088  RH  032%=      5-min Rain = 0
KMNS 241645Z 23007KT 28/08 A2985 RMK A01 T02800076  RH  028%=      5-min Rain = 0
KMNS 241650Z 22004G11KT 28/07 A2985 RMK A01 T02780074  RH  028%=      5-min Rain = 0
KMNS 241655Z 22005G10KT 28/07 A2985 RMK A01 T02830074  RH  027%=      5-min Rain = 0
KMNS 241700Z 24006KT 29/07 A2985 RMK A01 T02860065  RH  025%=      5-min Rain = 0
KMNS 241705Z 21003KT 29/06 A2985 RMK A01 T02850059  RH  024%=      5-min Rain = 0
KMNS 241710Z 24006KT 29/06 A2985 RMK A01 T02940058  RH  023%=      5-min Rain = 0
KMNS 241715Z 26003KT 29/05 A2985 RMK A01 T02930045  RH  021%=      5-min Rain = 0
KMNS 241720Z 24005G11KT 30/04 A2985 RMK A01 T02950039  RH  020%=      5-min Rain = 0
KMNS 241725Z 29003KT 29/05 A2985 RMK A01 T02900048  RH  022%=      5-min Rain = 0
KMNS 241730Z 27004G9KT 30/04 A2985 RMK A01 T02980038  RH  020%=      5-min Rain = 0
KMNS 241735Z 27005KT 30/02 A2985 RMK A01 T02950024  RH  018%=      5-min Rain = 0
KMNS 241740Z 26003KT 30/01 A2985 RMK A01 T02960014  RH  017%=      5-min Rain = 0
KMNS 241745Z 26002KT 30/01 A2985 RMK A01 T02960012  RH  016%=      5-min Rain = 0
KMNS 241750Z 23003KT 30/02 A2984 RMK A01 T02980015  RH  017%=      5-min Rain = 0
KMNS 241755Z 15003KT 30/01 A2984 RMK A01 T03010013  RH  016%=      5-min Rain = 0
KMNS 241800Z 12002KT 30/01 A2984 RMK A01 T03040014  RH  016%=      5-min Rain = 0
KMNS 241805Z 30006KT 31/01 A2984 RMK A01 T03070010  RH  015%=      5-min Rain = 0
KMNS 241810Z 30005G10KT 30/01 A2983 RMK A01 T03040005  RH  015%=      5-min Rain = 0
KMNS 241815Z 26008KT 31/M00 A2983 RMK A01 T03101001  RH  014%=      5-min Rain = 0
KMNS 241820Z 29006KT 31/M01 A2983 RMK A01 T03071006  RH  013%=      5-min Rain = 0
KMNS 241825Z 30004G9KT 31/M02 A2983 RMK A01 T03091017  RH  012%=      5-min Rain = 0
KMNS 241830Z 27008KT 31/M01 A2983 RMK A01 T03131013  RH  012%=      5-min Rain = 0
KMNS 241835Z 28005KT 32/M02 A2982 RMK A01 T03161022  RH  011%=      5-min Rain = 0
KMNS 241840Z 26003KT 31/M03 A2982 RMK A01 T03141029  RH  011%=      5-min Rain = 0
KMNS 241845Z 27005G11KT 32/M03 A2982 RMK A01 T03221034  RH  010%=      5-min Rain = 0
KMNS 241850Z 25006G13KT 32/M03 A2982 RMK A01 T03191033  RH  010%=      5-min Rain = 0
KMNS 241855Z 24007G13KT 32/M04 A2982 RMK A01 T03191037  RH  010%=      5-min Rain = 0
KMNS 241900Z 25003G8KT 32/M04 A2981 RMK A01 T03181039  RH  010%=      5-min Rain = 0
KMNS 241905Z 20006G11KT 33/M03 A2981 RMK A01 T03311033  RH  009%=      5-min Rain = 0
KMNS 241910Z 20007G12KT 33/M04 A2981 RMK A01 T03251039  RH  009%=      5-min Rain = 0
KMNS 241915Z 23007G12KT 33/M04 A298 RMK A01 T03281036  RH  009%=      5-min Rain = 0
KMNS 241920Z 24007G18KT 33/M04 A298 RMK A01 T03261038  RH  009%=      5-min Rain = 0
KMNS 241925Z 26008G14KT 32/M04 A298 RMK A01 T03211044  RH  009%=      5-min Rain = 0
KMNS 241930Z 26008G14KT 32/M04 A298 RMK A01 T03161039  RH  010%=      5-min Rain = 0
KMNS 241935Z 26010G16KT 32/M04 A298 RMK A01 T03171037  RH  010%=      5-min Rain = 0
KMNS 241940Z 25005G13KT 31/M04 A298 RMK A01 T03141042  RH  010%=      5-min Rain = 0
KMNS 241945Z 28006G11KT 32/M04 A2979 RMK A01 T03161041  RH  010%=      5-min Rain = 0
KMNS 241950Z 23005G10KT 32/M05 A2979 RMK A01 T03201046  RH  009%=      5-min Rain = 0
KMNS 241955Z 26007G12KT 33/M04 A2979 RMK A01 T03251042  RH  009%=      5-min Rain = 0
KMNS 242000Z 27007KT 32/M05 A2979 RMK A01 T03231048  RH  009%=      5-min Rain = 0
KMNS 242005Z 29006KT 32/M05 A2979 RMK A01 T03211050  RH  009%=      5-min Rain = 0
KMNS 242010Z 29007KT 33/M05 A2978 RMK A01 T03281048  RH  009%=      5-min Rain = 0
KMNS 242015Z 26007G15KT 33/M05 A2978 RMK A01 T03281049  RH  009%=      5-min Rain = 0
KMNS 242020Z 24012G18KT 33/M05 A2978 RMK A01 T03301053  RH  008%=      5-min Rain = 0
KMNS 242025Z 23014G20KT 34/M05 A2977 RMK A01 T03351049  RH  008%=      5-min Rain = 0
KMNS 242030Z 25008KT 33/M05 A2977 RMK A01 T03311050  RH  008%=      5-min Rain = 0
KMNS 242035Z 21010G17KT 34/M05 A2977 RMK A01 T03351053  RH  008%=      5-min Rain = 0
KMNS 242040Z 18009G18KT 33/M05 A2977 RMK A01 T03331054  RH  008%=      5-min Rain = 0
KMNS 242045Z 16005G13KT 33/M06 A2977 RMK A01 T03321060  RH  008%=      5-min Rain = 0
KMNS 242050Z 28007KT 34/M06 A2977 RMK A01 T03351058  RH  008%=      5-min Rain = 0
KMNS 242055Z 23009G16KT 34/M06 A2976 RMK A01 T03391058  RH  008%=      5-min Rain = 0
KMNS 242100Z 18011KT 34/M06 A2976 RMK A01 T03361061  RH  007%=      5-min Rain = 0
KMNS 242105Z 17007G12KT 33/M06 A2975 RMK A01 T03331063  RH  007%=      5-min Rain = 0
KMNS 242110Z 23011G18KT 34/M07 A2975 RMK A01 T03351065  RH  007%=      5-min Rain = 0
KMNS 242115Z 23013G18KT 34/M07 A2975 RMK A01 T03371067  RH  007%=      5-min Rain = 0
KMNS 242120Z 21012KT 33/M07 A2975 RMK A01 T03341069  RH  007%=      5-min Rain = 0
KMNS 242125Z 21007G16KT 33/M07 A2974 RMK A01 T03341066  RH  007%=      5-min Rain = 0
KMNS 242130Z 21008G13KT 34/M07 A2974 RMK A01 T03371068  RH  007%=      5-min Rain = 0
KMNS 242135Z 22008G14KT 33/M07 A2973 RMK A01 T03341070  RH  007%=      5-min Rain = 0
KMNS 242140Z 20011G18KT 33/M07 A2973 RMK A01 T03341068  RH  007%=      5-min Rain = 0
KMNS 242145Z 21010G18KT 33/M07 A2973 RMK A01 T03311065  RH  007%=      5-min Rain = 0
KMNS 242150Z 23009G17KT 34/M06 A2972 RMK A01 T03421064  RH  007%=      5-min Rain = 0
KMNS 242155Z 23008G15KT 34/M06 A2972 RMK A01 T03411064  RH  007%=      5-min Rain = 0
KMNS 242200Z 24004G16KT 34/M07 A2972 RMK A01 T03381069  RH  007%=      5-min Rain = 0
KMNS 242205Z 22010G16KT 34/M07 A2972 RMK A01 T03421066  RH  007%=      5-min Rain = 0
KMNS 242210Z 24010G16KT 33/M06 A2971 RMK A01 T03291064  RH  008%=      5-min Rain = 0
KMNS 242215Z 24008G13KT 34/M06 A2971 RMK A01 T03391061  RH  007%=      5-min Rain = 0
KMNS 242220Z 22007G14KT 34/M06 A297 RMK A01 T03361063  RH  007%=      5-min Rain = 0
KMNS 242225Z 27004G9KT 33/M06 A297 RMK A01 T03341061  RH  008%=      5-min Rain = 0
KMNS 242230Z 17003KT 34/M06 A297 RMK A01 T03351061  RH  008%=      5-min Rain = 0
KMNS 242235Z 28007G13KT 34/M06 A2969 RMK A01 T03391061  RH  007%=      5-min Rain = 0
KMNS 242240Z 27007G13KT 34/M07 A2969 RMK A01 T03361071  RH  007%=      5-min Rain = 0
KMNS 242245Z 26014G20KT 34/M07 A2969 RMK A01 T03361071  RH  007%=      5-min Rain = 0
KMNS 242250Z 25012KT 34/M07 A2969 RMK A01 T03361072  RH  007%=      5-min Rain = 0
KMNS 242255Z 26006G11KT 33/M07 A2969 RMK A01 T03321074  RH  007%=      5-min Rain = 0
KMNS 242300Z 25008G18KT 32/M08 A2969 RMK A01 T03241077  RH  007%=      5-min Rain = 0
KMNS 242305Z 23005KT 33/M08 A2968 RMK A01 T03301081  RH  007%=      5-min Rain = 0
KMNS 242310Z 26007G16KT 33/M08 A2968 RMK A01 T03281078  RH  007%=      5-min Rain = 0
KMNS 242315Z 27010G16KT 32/M07 A2968 RMK A01 T03171068  RH  008%=      5-min Rain = 0
KMNS 242320Z 29010G15KT 31/M07 A2968 RMK A01 T03141066  RH  008%=      5-min Rain = 0
KMNS 242325Z 30008KT 31/M07 A2968 RMK A01 T03121066  RH  008%=      5-min Rain = 0
KMNS 242330Z 30009KT 31/M06 A2968 RMK A01 T03121064  RH  008%=      5-min Rain = 0
KMNS 242335Z 30006KT 31/M06 A2968 RMK A01 T03111064  RH  008%=      5-min Rain = 0
KMNS 242340Z 33006KT 32/M07 A2967 RMK A01 T03201066  RH  008%=      5-min Rain = 0
KMNS 242345Z 25003KT 33/M07 A2967 RMK A01 T03261069  RH  007%=      5-min Rain = 0
KMNS 242350Z 20003KT 33/M07 A2967 RMK A01 T03281070  RH  007%=      5-min Rain = 0
KMNS 242355Z 25004G10KT 33/M08 A2968 RMK A01 T03311075  RH  007%=      5-min Rain = 0
KMNS 250000Z 24010G15KT 33/M08 A2968 RMK A01 T03301077  RH  007%=      5-min Rain = 0
KMNS 250005Z 25011KT 33/M08 A2968 RMK A01 T03291078  RH  007%=      5-min Rain = 0
KMNS 250010Z 25007KT 33/M08 A2968 RMK A01 T03291078  RH  007%=      5-min Rain = 0
KMNS 250015Z 23004KT 33/M08 A2968 RMK A01 T03281079  RH  007%=      5-min Rain = 0
KMNS 250020Z 06007G12KT 31/02 A2968 RMK A01 T03110020  RH  016%=      5-min Rain = 0
KMNS 250025Z 07007KT 30/00 A2969 RMK A01 T02990003  RH  015%=      5-min Rain = 0
KMNS 250030Z 13010G16KT 30/01 A2969 RMK A01 T03030011  RH  015%=      5-min Rain = 0
KMNS 250035Z 13010KT 30/01 A2969 RMK A01 T03020006  RH  015%=      5-min Rain = 0
KMNS 250040Z 14012KT 30/01 A2969 RMK A01 T03000007  RH  015%=      5-min Rain = 0
KMNS 250045Z 16007KT 30/01 A2969 RMK A01 T02990005  RH  015%=      5-min Rain = 0
KMNS 250050Z 14007KT 30/00 A2968 RMK A01 T029800-0  RH  015%=      5-min Rain = 0
KMNS 250055Z 15007KT 30/M00 A2968 RMK A01 T02991001  RH  015%=      5-min Rain = 0
KMNS 250100Z 12006KT 30/00 A2968 RMK A01 T02950004  RH  015%=      5-min Rain = 0
KMNS 250105Z 17004KT 30/00 A2967 RMK A01 T02960001  RH  015%=      5-min Rain = 0
KMNS 250110Z 17005KT 30/00 A2967 RMK A01 T02970001  RH  015%=      5-min Rain = 0
KMNS 250115Z 20006KT 29/00 A2967 RMK A01 T02930002  RH  015%=      5-min Rain = 0
KMNS 250120Z 19007KT 29/M00 A2967 RMK A01 T02911001  RH  015%=      5-min Rain = 0
KMNS 250125Z 12007KT 29/M00 A2967 RMK A01 T02871001  RH  016%=      5-min Rain = 0
KMNS 250130Z 10010KT 27/02 A2968 RMK A01 T02740024  RH  020%=      5-min Rain = 0
KMNS 250135Z 11015G21KT 26/04 A2969 RMK A01 T02580040  RH  025%=      5-min Rain = 0
KMNS 250140Z 13010KT 25/04 A297 RMK A01 T02510042  RH  026%=      5-min Rain = 0
KMNS 250145Z 12015G22KT 24/05 A297 RMK A01 T02430048  RH  029%=      5-min Rain = 0
KMNS 250150Z 12015G21KT 24/05 A2971 RMK A01 T02350050  RH  031%=      5-min Rain = 0
KMNS 250155Z 13017G22KT 23/05 A2972 RMK A01 T02320052  RH  032%=      5-min Rain = 0
KMNS 250200Z 13015G21KT 23/06 A2972 RMK A01 T02270060  RH  035%=      5-min Rain = 0
KMNS 250205Z 13015G20KT 22/06 A2972 RMK A01 T02230063  RH  036%=      5-min Rain = 0
KMNS 250210Z 12014KT 22/06 A2972 RMK A01 T02200064  RH  037%=      5-min Rain = 0
KMNS 250215Z 12013KT 22/07 A2973 RMK A01 T02170066  RH  039%=      5-min Rain = 0
KMNS 250220Z 12012G17KT 22/07 A2973 RMK A01 T02150067  RH  039%=      5-min Rain = 0
KMNS 250225Z 12011KT 21/07 A2973 RMK A01 T02140065  RH  039%=      5-min Rain = 0
KMNS 250230Z 12009KT 21/06 A2973 RMK A01 T02140061  RH  038%=      5-min Rain = 0
KMNS 250235Z 11013KT 22/05 A2973 RMK A01 T02160054  RH  036%=      5-min Rain = 0
KMNS 250240Z 12013KT 22/05 A2973 RMK A01 T02180049  RH  034%=      5-min Rain = 0
KMNS 250245Z 12014KT 22/05 A2974 RMK A01 T02200045  RH  033%=      5-min Rain = 0
KMNS 250250Z 12014G21KT 22/04 A2974 RMK A01 T02200042  RH  032%=      5-min Rain = 0
KMNS 250255Z 12015KT 22/04 A2974 RMK A01 T02210040  RH  031%=      5-min Rain = 0
KMNS 250300Z 12013G21KT 22/04 A2974 RMK A01 T02180044  RH  033%=      5-min Rain = 0
KMNS 250305Z 12014G20KT 22/05 A2974 RMK A01 T02150052  RH  035%=      5-min Rain = 0
KMNS 250310Z 13009G14KT 21/05 A2973 RMK A01 T02110054  RH  036%=      5-min Rain = 0
KMNS 250315Z 13011G16KT 21/06 A2972 RMK A01 T02080060  RH  039%=      5-min Rain = 0
KMNS 250320Z 13013G18KT 21/07 A2972 RMK A01 T02060065  RH  041%=      5-min Rain = 0
KMNS 250325Z 14010KT 21/06 A2971 RMK A01 T02050064  RH  041%=      5-min Rain = 0
KMNS 250330Z 15011KT 20/07 A2971 RMK A01 T02040065  RH  042%=      5-min Rain = 0
KMNS 250335Z 15011KT 20/07 A2971 RMK A01 T02030066  RH  042%=      5-min Rain = 0
KMNS 250340Z 14010KT 20/07 A2971 RMK A01 T02020067  RH  043%=      5-min Rain = 0
KMNS 250345Z 14010KT 20/07 A2971 RMK A01 T02020068  RH  043%=      5-min Rain = 0
KMNS 250350Z 13009KT 20/07 A2971 RMK A01 T02010068  RH  043%=      5-min Rain = 0
KMNS 250355Z 13009KT 20/07 A2971 RMK A01 T02000069  RH  043%=      5-min Rain = 0
KMNS 250400Z 13008KT 20/07 A2971 RMK A01 T01990071  RH  045%=      5-min Rain = 0
KMNS 250405Z 12010KT 20/08 A2971 RMK A01 T01950075  RH  047%=      5-min Rain = 0
KMNS 250410Z 11010KT 19/08 A2972 RMK A01 T01920076  RH  048%=      5-min Rain = 0
KMNS 250415Z 11010KT 19/08 A2972 RMK A01 T01920075  RH  048%=      5-min Rain = 0
KMNS 250420Z 11010KT 19/08 A2972 RMK A01 T01910075  RH  048%=      5-min Rain = 0
KMNS 250425Z 11010G15KT 19/08 A2973 RMK A01 T01890075  RH  048%=      5-min Rain = 0
KMNS 250430Z 11012KT 19/08 A2974 RMK A01 T01890076  RH  049%=      5-min Rain = 0
KMNS 250435Z 12011KT 19/08 A2975 RMK A01 T01880077  RH  050%=      5-min Rain = 0
KMNS 250440Z 13012KT 19/08 A2975 RMK A01 T01880078  RH  050%=      5-min Rain = 0
KMNS 250445Z 13012KT 19/08 A2976 RMK A01 T01880078  RH  050%=      5-min Rain = 0
KMNS 250450Z 13013KT 19/08 A2977 RMK A01 T01860079  RH  051%=      5-min Rain = 0
KMNS 250455Z 13014KT 19/08 A2977 RMK A01 T01850080  RH  052%=      5-min Rain = 0

Page generated in 0.0303 seconds.